createdAt,value
2023-03-14T00:01:39.669Z,2.40
2023-03-14T00:04:09.822Z,2.78
2023-03-14T00:06:39.849Z,3.47
2023-03-14T00:09:10.082Z,2.15
2023-03-14T00:11:39.997Z,3.42
2023-03-14T00:14:12.865Z,4.03
2023-03-14T00:16:43.506Z,2.78
2023-03-14T00:19:13.404Z,2.63
2023-03-14T00:21:43.330Z,4.00
2023-03-14T00:24:13.278Z,4.47
2023-03-14T00:26:43.261Z,4.15
2023-03-14T00:29:15.772Z,3.47
2023-03-14T00:31:45.693Z,3.15
2023-03-14T00:34:15.649Z,4.13
2023-03-14T00:36:45.571Z,3.03
2023-03-14T00:39:15.494Z,3.55
2023-03-14T00:41:45.424Z,4.03
2023-03-14T00:44:17.963Z,4.63
2023-03-14T00:46:48.131Z,2.40
2023-03-14T00:49:18.072Z,2.70
2023-03-14T00:51:47.951Z,3.58
2023-03-14T00:54:17.809Z,4.95
2023-03-14T00:56:47.934Z,2.20
2023-03-14T00:59:20.709Z,4.28
2023-03-14T01:01:50.668Z,3.80
2023-03-14T01:04:20.652Z,3.05
2023-03-14T01:06:50.579Z,2.47
2023-03-14T01:09:20.693Z,3.45
2023-03-14T01:11:51.068Z,2.22
2023-03-14T01:14:23.545Z,4.18
2023-03-14T01:16:53.441Z,1.65
2023-03-14T01:19:23.415Z,4.57
2023-03-14T01:21:53.328Z,2.22
2023-03-14T01:24:23.179Z,3.17
2023-03-14T01:26:53.204Z,4.03
2023-03-14T01:29:25.698Z,2.35
2023-03-14T01:31:55.728Z,4.22
2023-03-14T01:34:25.705Z,3.90
2023-03-14T01:36:56.073Z,2.42
2023-03-14T01:39:26.032Z,6.22
2023-03-14T01:41:56.057Z,2.10
2023-03-14T01:44:28.533Z,3.53
2023-03-14T01:46:58.669Z,2.75
2023-03-14T01:49:32.561Z,2.67
2023-03-14T01:52:07.125Z,2.08
2023-03-14T01:57:16.077Z,3.05
2023-03-14T01:59:56.493Z,2.42
2023-03-14T02:02:29.955Z,2.65
2023-03-14T02:05:01.511Z,2.63
2023-03-14T02:07:38.622Z,2.15
2023-03-14T02:10:11.125Z,1.90
2023-03-14T02:12:41.700Z,1.33
2023-03-14T02:15:14.749Z,2.63
2023-03-14T02:17:46.545Z,3.40
2023-03-14T02:20:29.920Z,2.22
2023-03-14T02:23:00.224Z,3.10
2023-03-14T02:25:42.012Z,1.50
2023-03-14T02:28:15.150Z,2.95
2023-03-14T02:30:45.267Z,1.83
2023-03-14T02:33:20.103Z,2.53
2023-03-14T02:35:56.820Z,2.10
2023-03-14T02:38:34.294Z,3.05
2023-03-14T02:41:04.215Z,5.70
2023-03-14T02:43:37.112Z,1.25
2023-03-14T02:46:09.498Z,3.25
2023-03-14T02:48:44.453Z,2.08
2023-03-14T02:51:15.758Z,3.35
2023-03-14T02:53:45.677Z,3.13
2023-03-14T02:56:15.645Z,2.92
2023-03-14T02:58:48.162Z,2.53
2023-03-14T03:01:18.176Z,2.10
2023-03-14T03:03:48.117Z,2.95
2023-03-14T03:06:18.941Z,3.45
2023-03-14T03:08:48.898Z,2.05
2023-03-14T03:11:18.844Z,4.53
2023-03-14T03:13:51.328Z,1.75
2023-03-14T03:16:21.366Z,2.25
2023-03-14T03:18:51.265Z,1.95
2023-03-14T03:21:24.368Z,10.13
2023-03-14T03:23:54.836Z,2.17
2023-03-14T03:26:24.704Z,2.00
2023-03-14T03:28:57.409Z,2.40
2023-03-14T03:31:27.288Z,2.33
2023-03-14T03:33:57.191Z,1.88
2023-03-14T03:36:29.218Z,3.63
2023-03-14T03:38:59.097Z,2.40
2023-03-14T03:41:28.998Z,2.92
2023-03-14T03:44:01.700Z,2.00
2023-03-14T03:46:31.598Z,2.90
2023-03-14T03:49:03.181Z,3.85
2023-03-14T03:51:33.046Z,2.38
2023-03-14T03:54:02.947Z,2.05
2023-03-14T03:56:33.380Z,2.17
2023-03-14T03:59:06.020Z,2.10
2023-03-14T04:01:36.146Z,2.88
2023-03-14T04:04:06.236Z,1.83
2023-03-14T04:06:36.667Z,3.83
2023-03-14T04:09:06.836Z,1.02
2023-03-14T04:11:36.940Z,4.40
2023-03-14T04:14:09.890Z,2.08
2023-03-14T04:16:40.038Z,5.20
2023-03-14T04:19:10.049Z,4.03
2023-03-14T04:21:41.678Z,2.08
2023-03-14T04:24:12.466Z,2.92
2023-03-14T04:26:42.468Z,5.70
2023-03-14T04:29:14.931Z,2.17
2023-03-14T04:31:44.785Z,2.85
2023-03-14T04:34:14.710Z,2.78
2023-03-14T04:36:44.610Z,2.13
2023-03-14T04:39:14.504Z,2.95
2023-03-14T04:41:44.680Z,2.17
2023-03-14T04:44:17.176Z,4.35
2023-03-14T04:46:47.337Z,4.13
2023-03-14T04:49:17.406Z,1.52
2023-03-14T04:51:47.341Z,2.67
2023-03-14T04:54:17.475Z,1.80
2023-03-14T04:56:47.801Z,2.22
2023-03-14T04:59:20.408Z,2.25
2023-03-14T05:01:51.088Z,2.00
2023-03-14T05:04:21.138Z,1.95
2023-03-14T05:06:51.078Z,2.95
2023-03-14T05:09:21.102Z,2.38
2023-03-14T05:11:51.055Z,2.40
2023-03-14T05:14:23.721Z,2.20
2023-03-14T05:16:53.721Z,1.17
2023-03-14T05:19:23.635Z,2.30
2023-03-14T05:21:53.710Z,3.40
2023-03-14T05:24:23.744Z,3.00
2023-03-14T05:26:53.671Z,1.50
2023-03-14T05:29:26.455Z,2.90
2023-03-14T05:31:56.476Z,1.95
2023-03-14T05:34:26.529Z,3.63
2023-03-14T05:36:57.229Z,3.72
2023-03-14T05:39:27.746Z,1.33
2023-03-14T05:41:57.761Z,2.28
2023-03-14T05:44:30.294Z,3.30
2023-03-14T05:47:00.314Z,2.90
2023-03-14T05:49:30.382Z,3.00
2023-03-14T05:52:00.482Z,3.80
2023-03-14T05:54:30.478Z,2.88
2023-03-14T05:57:00.641Z,3.63
2023-03-14T05:59:33.456Z,3.08
2023-03-14T06:02:03.545Z,6.43
2023-03-14T06:04:33.638Z,2.00
2023-03-14T06:07:03.691Z,2.40
2023-03-14T06:09:33.872Z,6.43
2023-03-14T06:12:04.000Z,3.22
2023-03-14T06:14:36.739Z,2.42
2023-03-14T06:17:06.923Z,4.45
2023-03-14T06:19:36.936Z,3.15
2023-03-14T06:22:07.069Z,2.72
2023-03-14T06:24:37.632Z,3.70
2023-03-14T06:27:07.996Z,2.67
2023-03-14T06:29:41.188Z,3.80
2023-03-14T06:32:11.290Z,3.40
2023-03-14T06:34:42.358Z,3.05
2023-03-14T06:37:12.551Z,3.50
2023-03-14T06:39:42.784Z,3.40
2023-03-14T06:42:12.833Z,5.15
2023-03-14T06:44:45.463Z,3.58
2023-03-14T06:47:15.527Z,2.40
2023-03-14T06:49:45.598Z,4.80
2023-03-14T06:52:15.736Z,3.20
2023-03-14T06:54:45.745Z,5.18
2023-03-14T06:57:15.785Z,4.38
2023-03-14T06:59:48.560Z,3.42
2023-03-14T07:02:20.250Z,4.40
2023-03-14T07:04:51.721Z,4.07
2023-03-14T07:07:21.889Z,6.53
2023-03-14T07:09:52.283Z,5.68
2023-03-14T07:12:22.659Z,6.05
2023-03-14T07:14:55.641Z,3.65
2023-03-14T07:17:26.639Z,8.47
2023-03-14T07:19:56.673Z,3.53
2023-03-14T07:22:26.750Z,4.55
2023-03-14T07:24:56.999Z,5.38
2023-03-14T07:27:27.300Z,4.15
2023-03-14T07:29:59.878Z,3.58
2023-03-14T07:32:30.241Z,3.40
2023-03-14T07:35:00.416Z,4.90
2023-03-14T07:37:30.529Z,3.15
2023-03-14T07:40:00.825Z,4.13
2023-03-14T07:42:30.972Z,4.00
2023-03-14T07:45:04.234Z,3.13
2023-03-14T07:47:34.401Z,2.70
2023-03-14T07:50:04.488Z,3.78
2023-03-14T07:52:34.557Z,3.83
2023-03-14T07:55:04.606Z,5.60
2023-03-14T07:57:34.784Z,4.72
2023-03-14T08:00:09.616Z,2.65
2023-03-14T08:02:40.028Z,2.65
2023-03-14T08:05:11.702Z,3.20
2023-03-14T08:07:41.873Z,3.80
2023-03-14T08:10:16.890Z,6.43
2023-03-14T08:12:46.835Z,8.77
2023-03-14T08:15:19.610Z,3.63
2023-03-14T08:17:52.018Z,3.92
2023-03-14T08:20:23.212Z,3.05
2023-03-14T08:22:53.451Z,3.30
2023-03-14T08:25:23.652Z,4.25
2023-03-14T08:27:54.256Z,3.05
2023-03-14T08:30:27.807Z,7.85
2023-03-14T08:32:57.869Z,1.20
2023-03-14T08:35:28.616Z,3.20
2023-03-14T08:37:59.358Z,2.83
2023-03-14T08:40:29.494Z,0.70
2023-03-14T08:42:59.603Z,5.22
2023-03-14T08:45:32.470Z,3.58
2023-03-14T08:48:02.623Z,1.77
2023-03-14T08:50:32.779Z,5.47
2023-03-14T08:53:03.864Z,1.67
2023-03-14T08:55:34.354Z,3.22
2023-03-14T08:58:04.324Z,3.38
2023-03-14T09:00:37.133Z,0.70
2023-03-14T09:03:07.364Z,4.47
2023-03-14T09:05:37.892Z,5.85
2023-03-14T09:08:08.832Z,2.10
2023-03-14T09:10:42.328Z,4.88
2023-03-14T09:13:12.534Z,4.30
2023-03-14T09:15:45.962Z,3.03
2023-03-14T09:18:15.960Z,3.38
2023-03-14T09:20:46.034Z,0.50
2023-03-14T09:23:16.814Z,3.80
2023-03-14T09:25:47.050Z,0.52
2023-03-14T09:28:17.417Z,0.70
2023-03-14T09:30:50.733Z,3.33
2023-03-14T09:33:21.435Z,4.45
2023-03-14T09:35:51.846Z,3.95
2023-03-14T09:38:22.092Z,3.38
2023-03-14T09:40:53.201Z,3.58
2023-03-14T09:43:24.787Z,5.28
2023-03-14T09:45:58.055Z,2.42
2023-03-14T09:48:33.762Z,1.95
2023-03-14T09:51:08.364Z,1.52
2023-03-14T09:56:17.720Z,4.78
2023-03-14T09:58:52.526Z,1.27
2023-03-14T10:01:32.230Z,2.88
2023-03-14T10:04:08.176Z,3.95
2023-03-14T10:06:38.356Z,3.30
2023-03-14T10:09:09.354Z,1.88
2023-03-14T10:11:39.415Z,7.38
2023-03-14T10:14:13.704Z,4.07
2023-03-14T10:16:50.803Z,4.50
2023-03-14T10:19:21.718Z,2.53
2023-03-14T10:21:57.952Z,2.95
2023-03-14T10:24:33.819Z,3.08
2023-03-14T10:27:07.681Z,1.50
2023-03-14T10:29:38.910Z,3.17
2023-03-14T10:32:23.139Z,3.53
2023-03-14T10:35:12.744Z,3.05
2023-03-14T10:37:55.971Z,3.50
2023-03-14T10:40:32.754Z,2.42
2023-03-14T10:43:04.755Z,2.20
2023-03-14T10:45:41.012Z,2.60
2023-03-14T10:48:24.812Z,1.45
2023-03-14T10:51:00.875Z,2.47
2023-03-14T10:53:30.989Z,8.38
2023-03-14T10:56:01.502Z,1.67
2023-03-14T10:58:34.258Z,2.08
2023-03-14T11:01:35.444Z,3.67
2023-03-14T11:04:22.030Z,1.42
2023-03-14T11:07:01.039Z,1.75
2023-03-14T11:09:39.010Z,0.75
2023-03-14T11:12:30.699Z,3.53
2023-03-14T11:15:06.830Z,2.65
2023-03-14T11:17:46.139Z,6.50
2023-03-14T11:20:36.866Z,5.63
2023-03-14T11:23:16.844Z,5.07
2023-03-14T11:25:58.525Z,2.78
2023-03-14T11:28:41.274Z,0.98
2023-03-14T11:31:20.820Z,3.92
2023-03-14T11:33:57.951Z,1.63
2023-03-14T11:36:35.885Z,2.67
2023-03-14T11:39:06.633Z,2.00
2023-03-14T11:41:41.219Z,2.15
2023-03-14T11:46:54.975Z,3.38
2023-03-14T11:49:37.022Z,4.68
2023-03-14T11:52:18.936Z,3.42
2023-03-14T11:54:54.343Z,4.05
2023-03-14T11:57:26.341Z,3.47
2023-03-14T12:00:05.442Z,2.90
2023-03-14T12:02:44.570Z,2.88
2023-03-14T12:05:42.490Z,3.90
2023-03-14T12:08:54.494Z,2.92
2023-03-14T12:11:40.151Z,3.55
2023-03-14T12:14:24.933Z,1.85
2023-03-14T12:17:02.626Z,2.47
2023-03-14T12:19:40.149Z,2.67
2023-03-14T12:22:31.244Z,3.60
2023-03-14T12:25:10.593Z,7.75
2023-03-14T12:28:21.024Z,2.78
2023-03-14T12:30:51.570Z,1.88
2023-03-14T12:33:36.695Z,3.85
2023-03-14T12:36:16.892Z,2.95
2023-03-14T12:39:34.222Z,4.68
2023-03-14T12:42:13.334Z,2.90
2023-03-14T12:44:49.392Z,2.17
2023-03-14T12:47:57.024Z,3.38
2023-03-14T12:50:37.727Z,3.90
2023-03-14T12:53:51.396Z,3.05
2023-03-14T12:56:29.150Z,2.85
2023-03-14T12:59:36.683Z,1.67
2023-03-14T13:02:30.273Z,2.75
2023-03-14T13:05:14.576Z,1.50
2023-03-14T13:08:08.586Z,3.58
2023-03-14T13:10:52.177Z,5.10
2023-03-14T13:13:26.840Z,1.73
2023-03-14T13:18:40.531Z,3.17
2023-03-14T13:21:18.004Z,1.05
2023-03-14T13:24:02.659Z,1.98
2023-03-14T13:26:39.508Z,2.05
2023-03-14T13:29:23.073Z,2.85
2023-03-14T13:31:58.713Z,3.55
2023-03-14T13:34:30.369Z,1.38
2023-03-14T13:37:01.100Z,3.40
2023-03-14T13:39:34.086Z,1.00
2023-03-14T13:42:06.008Z,2.38
2023-03-14T13:44:39.131Z,1.45
2023-03-14T13:47:19.231Z,1.73
2023-03-14T13:49:49.968Z,2.05
2023-03-14T13:52:28.630Z,2.53
2023-03-14T13:54:59.107Z,2.45
2023-03-14T13:57:29.770Z,2.15
2023-03-14T14:00:06.854Z,2.03
2023-03-14T14:02:42.113Z,0.65
2023-03-14T14:05:15.264Z,0.43
2023-03-14T14:07:48.558Z,0.50
2023-03-14T14:10:18.975Z,0.85
2023-03-14T14:12:55.075Z,0.40
2023-03-14T14:15:27.836Z,0.40
2023-03-14T14:18:04.398Z,0.47
2023-03-14T14:20:39.512Z,0.60
2023-03-14T14:23:13.950Z,0.88
2023-03-14T14:25:44.345Z,1.85
2023-03-14T14:28:29.000Z,2.40
2023-03-14T14:31:22.260Z,2.55
2023-03-14T14:34:02.194Z,1.08
2023-03-14T14:36:36.069Z,1.42
2023-03-14T14:39:14.190Z,1.30
2023-03-14T14:41:46.255Z,0.50
2023-03-14T14:44:20.302Z,0.55
2023-03-14T14:46:50.723Z,2.60
2023-03-14T14:49:25.120Z,1.60
2023-03-14T14:51:55.586Z,1.70
2023-03-14T14:54:41.144Z,0.95
2023-03-14T14:57:23.965Z,10.35
2023-03-14T14:59:55.747Z,1.48
2023-03-14T15:02:45.264Z,0.75
2023-03-14T15:05:21.182Z,3.05
2023-03-14T15:07:52.133Z,2.38
2023-03-14T15:10:25.705Z,1.88
2023-03-14T15:12:56.294Z,0.98
2023-03-14T15:15:26.493Z,0.50
2023-03-14T15:17:56.650Z,2.30
2023-03-14T15:20:29.641Z,0.88
2023-03-14T15:22:59.956Z,1.20
2023-03-14T15:25:54.089Z,2.40
2023-03-14T15:28:24.013Z,2.25
2023-03-14T15:30:57.445Z,1.27
2023-03-14T15:33:28.464Z,0.95
2023-03-14T15:36:02.012Z,1.77
2023-03-14T15:38:32.229Z,1.00
2023-03-14T15:41:02.488Z,0.40
2023-03-14T15:43:32.561Z,1.58
2023-03-14T15:46:02.658Z,2.35
2023-03-14T15:48:32.829Z,2.10
2023-03-14T15:51:05.474Z,1.08
2023-03-14T15:53:37.888Z,2.03
2023-03-14T15:56:09.154Z,7.40
2023-03-14T15:58:41.316Z,1.13
2023-03-14T16:01:12.518Z,2.20
2023-03-14T16:03:44.939Z,3.45
2023-03-14T16:06:18.003Z,0.73
2023-03-14T16:08:48.591Z,1.17
2023-03-14T16:11:20.945Z,2.35
2023-03-14T16:13:51.773Z,2.30
2023-03-14T16:16:22.136Z,1.70
2023-03-14T16:18:52.313Z,1.17
2023-03-14T16:21:25.967Z,0.98
2023-03-14T16:23:55.968Z,1.67
2023-03-14T16:26:26.028Z,3.72
2023-03-14T16:28:56.370Z,3.17
2023-03-14T16:31:26.715Z,2.72
2023-03-14T16:33:57.126Z,2.30
2023-03-14T16:36:29.815Z,2.63
2023-03-14T16:38:59.948Z,2.33
2023-03-14T16:41:31.640Z,2.17
2023-03-14T16:44:02.016Z,2.47
2023-03-14T16:46:32.852Z,1.25
2023-03-14T16:49:02.823Z,1.13
2023-03-14T16:51:36.015Z,3.17
2023-03-14T16:54:06.249Z,4.57
2023-03-14T16:56:36.435Z,1.60
2023-03-14T16:59:07.402Z,2.33
2023-03-14T17:01:38.234Z,2.50
2023-03-14T17:04:09.827Z,2.97
2023-03-14T17:06:45.489Z,2.10
2023-03-14T17:09:15.520Z,1.80
2023-03-14T17:11:45.898Z,1.50
2023-03-14T17:14:16.038Z,2.45
2023-03-14T17:16:46.189Z,5.45
2023-03-14T17:19:16.121Z,3.10
2023-03-14T17:21:48.757Z,4.65
2023-03-14T17:24:19.959Z,6.95
2023-03-14T17:26:50.233Z,3.30
2023-03-14T17:29:20.309Z,6.25
2023-03-14T17:31:50.405Z,3.08
2023-03-14T17:34:20.624Z,3.70
2023-03-14T17:36:53.224Z,3.40
2023-03-14T17:39:23.430Z,6.25
2023-03-14T17:41:53.713Z,5.82
2023-03-14T17:44:23.807Z,5.85
2023-03-14T17:46:54.200Z,8.00
2023-03-14T17:49:24.467Z,5.60
2023-03-14T17:51:58.489Z,6.03
2023-03-14T17:54:28.446Z,5.13
2023-03-14T17:56:58.543Z,7.72
2023-03-14T17:59:28.958Z,8.10
2023-03-14T18:02:01.030Z,6.03
2023-03-14T18:04:31.330Z,7.43
2023-03-14T18:07:04.637Z,8.38
2023-03-14T18:09:34.936Z,10.77
2023-03-14T18:12:08.420Z,8.35
2023-03-14T18:14:39.592Z,8.70
2023-03-14T18:17:12.759Z,10.93
2023-03-14T18:19:42.769Z,8.18
2023-03-14T18:22:16.222Z,7.82
2023-03-14T18:24:46.557Z,7.43
2023-03-14T18:27:16.696Z,9.18
2023-03-14T18:29:47.520Z,12.68
2023-03-14T18:32:19.433Z,11.32
2023-03-14T18:34:49.708Z,10.43
2023-03-14T18:37:22.323Z,14.25
2023-03-14T18:39:52.541Z,14.45
2023-03-14T18:42:22.630Z,10.93
2023-03-14T18:44:52.754Z,9.60
2023-03-14T18:47:25.831Z,9.25
2023-03-14T18:49:56.096Z,17.15
2023-03-14T18:52:28.874Z,13.57
2023-03-14T18:54:59.061Z,18.25
2023-03-14T18:57:29.326Z,11.70
2023-03-14T18:59:59.334Z,17.85
2023-03-14T19:02:29.669Z,17.83
2023-03-14T19:04:59.586Z,12.25
2023-03-14T19:07:34.092Z,10.95
2023-03-14T19:10:04.399Z,10.85
2023-03-14T19:12:34.593Z,14.75
2023-03-14T19:15:04.807Z,12.32
2023-03-14T19:17:34.710Z,9.43
2023-03-14T19:20:04.680Z,11.95
2023-03-14T19:22:37.750Z,20.05
2023-03-14T19:25:09.052Z,9.38
2023-03-14T19:27:39.068Z,16.50
2023-03-14T19:30:10.867Z,12.07
2023-03-14T19:32:42.069Z,10.68
2023-03-14T19:35:12.556Z,10.98
2023-03-14T19:37:45.507Z,12.85
2023-03-14T19:40:16.811Z,16.58
2023-03-14T19:42:47.142Z,12.65
2023-03-14T19:45:17.062Z,8.00
2023-03-14T19:47:46.966Z,17.02
2023-03-14T19:50:16.841Z,12.55
2023-03-14T19:52:49.524Z,12.32
2023-03-14T19:55:19.568Z,19.65
2023-03-14T19:57:49.488Z,11.30
2023-03-14T20:00:21.978Z,14.95
2023-03-14T20:02:53.036Z,18.77
2023-03-14T20:05:25.947Z,12.18
2023-03-14T20:07:58.501Z,16.33
2023-03-14T20:10:28.373Z,14.07
2023-03-14T20:13:00.981Z,12.77
2023-03-14T20:15:32.558Z,9.82
2023-03-14T20:18:02.523Z,11.05
2023-03-14T20:20:32.718Z,14.02
2023-03-14T20:23:05.537Z,9.13
2023-03-14T20:25:37.785Z,14.48
2023-03-14T20:28:08.322Z,12.80
2023-03-14T20:30:38.351Z,12.35
2023-03-14T20:33:08.350Z,15.57
2023-03-14T20:35:38.909Z,13.73
2023-03-14T20:38:11.710Z,12.48
2023-03-14T20:40:41.542Z,11.00
2023-03-14T20:43:11.547Z,11.80
2023-03-14T20:45:41.409Z,13.43
2023-03-14T20:48:11.315Z,15.57
2023-03-14T20:50:41.175Z,16.38
2023-03-14T20:53:13.690Z,11.00
2023-03-14T20:55:43.628Z,15.07
2023-03-14T20:58:14.839Z,15.85
2023-03-14T21:00:49.543Z,12.32
2023-03-14T21:05:51.037Z,9.10
2023-03-14T21:08:25.542Z,17.40
2023-03-14T21:10:58.330Z,13.73
2023-03-14T21:13:28.500Z,10.48
2023-03-14T21:15:58.424Z,16.67
2023-03-14T21:18:28.368Z,13.73
2023-03-14T21:20:59.199Z,15.80
2023-03-14T21:23:34.537Z,9.48
2023-03-14T21:26:05.123Z,11.13
2023-03-14T21:28:35.003Z,19.88
2023-03-14T21:31:09.654Z,10.35
2023-03-14T21:33:39.736Z,15.35
2023-03-14T21:36:11.390Z,11.63
2023-03-14T21:38:43.919Z,13.32
2023-03-14T21:41:14.188Z,6.10
2023-03-14T21:43:45.959Z,13.90
2023-03-14T21:46:16.032Z,10.18
2023-03-14T21:48:46.733Z,11.40
2023-03-14T21:51:16.578Z,15.30
2023-03-14T21:53:49.083Z,10.52
2023-03-14T21:56:18.941Z,11.10
2023-03-14T21:58:48.786Z,18.35
2023-03-14T22:01:18.647Z,15.00
2023-03-14T22:03:48.463Z,13.05
2023-03-14T22:06:18.319Z,12.27
2023-03-14T22:08:50.754Z,19.17
2023-03-14T22:11:20.614Z,10.25
2023-03-14T22:13:50.679Z,17.58
2023-03-14T22:16:20.731Z,12.88
2023-03-14T22:18:50.630Z,11.88
2023-03-14T22:21:20.593Z,10.48
2023-03-14T22:23:53.009Z,9.90
2023-03-14T22:26:23.100Z,14.77
2023-03-14T22:28:53.046Z,10.43
2023-03-14T22:31:22.922Z,9.90
2023-03-14T22:33:52.793Z,15.55
2023-03-14T22:36:22.722Z,14.63
2023-03-14T22:38:55.472Z,15.48
2023-03-14T22:41:25.335Z,8.85
2023-03-14T22:43:55.505Z,11.45
2023-03-14T22:46:25.372Z,12.98
2023-03-14T22:48:55.423Z,12.32
2023-03-14T22:51:25.315Z,10.80
2023-03-14T22:53:57.838Z,15.15
2023-03-14T22:56:27.822Z,8.23
2023-03-14T22:59:00.437Z,13.00
2023-03-14T23:01:31.452Z,11.45
2023-03-14T23:04:02.008Z,12.63
2023-03-14T23:06:32.037Z,15.85
2023-03-14T23:09:04.840Z,12.82
2023-03-14T23:11:35.506Z,12.32
2023-03-14T23:14:06.842Z,15.35
2023-03-14T23:16:40.504Z,5.43
2023-03-14T23:19:11.503Z,10.13
2023-03-14T23:21:41.606Z,9.73
2023-03-14T23:24:14.528Z,11.93
2023-03-14T23:26:46.437Z,16.52
2023-03-14T23:29:16.765Z,14.73
2023-03-14T23:31:46.831Z,15.00
2023-03-14T23:34:16.984Z,13.82
2023-03-14T23:36:47.184Z,8.38
2023-03-14T23:39:19.664Z,16.00
2023-03-14T23:41:49.739Z,13.32
2023-03-14T23:44:20.379Z,13.52
2023-03-14T23:46:50.388Z,13.32
2023-03-14T23:49:20.229Z,10.40
2023-03-14T23:51:50.556Z,8.38
2023-03-14T23:54:23.109Z,15.90
2023-03-14T23:56:53.356Z,15.25
2023-03-14T23:59:23.606Z,12.32
